Alaska, Minnesota
Current Conditions -  °F | °C
As of 8:12 AM on Thursday 18 Dec 2014 (Local Time) from KBJI Reporting Station
Clear Clear  
Wind Chill:   Ceiling: Unl
Heat Index:   Visibility: 10mi
Dew Point:   Wind: 3mph
Humidity: 89%   Direction: 120°ESE
Pressure: 30.25"   Gusts: NA
Location:  47.7369°N, 94.9947°W
Report Text: KBJI 181412Z AUTO 12003KT 10SM CLR M15/M16 A3025 RMK AO2 T11471162
Loading
Personal Weather Stations






























Interactive Weather Map New forecast layout! Learn more

10-Day Weather Forecast

Advertisements
Track Severe Weather on mobile